createdAt,value
2023-04-20T00:04:36.767Z,3.20
2023-04-20T00:09:39.532Z,2.67
2023-04-20T00:14:42.358Z,3.00
2023-04-20T00:19:45.027Z,3.30
2023-04-20T00:24:47.611Z,3.43
2023-04-20T00:29:50.211Z,3.03
2023-04-20T00:34:52.816Z,3.37
2023-04-20T00:39:56.036Z,3.13
2023-04-20T00:45:00.659Z,2.70
2023-04-20T00:50:07.026Z,2.87
2023-04-20T00:55:10.062Z,2.73
2023-04-20T01:00:14.341Z,3.00
2023-04-20T01:05:17.301Z,2.90
2023-04-20T01:10:19.854Z,3.00
2023-04-20T01:15:22.406Z,3.07
2023-04-20T01:20:25.398Z,2.77
2023-04-20T01:25:29.668Z,2.93
2023-04-20T01:30:32.343Z,2.67
2023-04-20T01:35:35.076Z,3.10
2023-04-20T01:40:39.233Z,2.50
2023-04-20T01:45:42.246Z,3.00
2023-04-20T01:50:45.023Z,3.10
2023-04-20T01:55:48.884Z,3.10
2023-04-20T02:00:51.522Z,3.00
2023-04-20T02:05:54.172Z,2.80
2023-04-20T02:10:56.756Z,3.00
2023-04-20T02:15:59.314Z,2.83
2023-04-20T02:21:02.432Z,3.00
2023-04-20T02:26:05.060Z,2.63
2023-04-20T02:31:07.682Z,2.60
2023-04-20T02:36:10.653Z,2.90
2023-04-20T02:41:16.070Z,2.60
2023-04-20T02:46:20.702Z,3.00
2023-04-20T02:51:24.161Z,3.30
2023-04-20T02:56:27.393Z,3.00
2023-04-20T03:01:32.964Z,2.70
2023-04-20T03:06:42.953Z,3.00
2023-04-20T03:11:50.786Z,2.97
2023-04-20T03:17:08.769Z,2.90
2023-04-20T03:22:12.274Z,2.90
2023-04-20T03:27:15.062Z,3.00
2023-04-20T03:32:32.569Z,2.87
2023-04-20T03:37:37.734Z,2.93
2023-04-20T03:42:42.538Z,3.23
2023-04-20T03:47:45.225Z,2.80
2023-04-20T03:52:47.974Z,2.97
2023-04-20T03:57:50.910Z,2.93
2023-04-20T04:02:54.271Z,3.20
2023-04-20T04:08:02.680Z,3.13
2023-04-20T04:13:05.893Z,3.40
2023-04-20T04:18:08.629Z,3.10
2023-04-20T04:23:13.354Z,3.00
2023-04-20T04:28:21.180Z,2.87
2023-04-20T04:33:34.418Z,3.10
2023-04-20T04:38:38.108Z,3.10
2023-04-20T04:43:42.070Z,3.30
2023-04-20T04:49:06.082Z,3.40
2023-04-20T04:54:08.947Z,3.60
2023-04-20T04:59:11.869Z,3.07
2023-04-20T05:04:14.673Z,3.50
2023-04-20T05:09:17.654Z,3.00
2023-04-20T05:14:20.521Z,3.63
2023-04-20T05:19:23.265Z,3.33
2023-04-20T05:24:25.927Z,3.60
2023-04-20T05:29:28.545Z,3.90
2023-04-20T05:34:31.362Z,3.83
2023-04-20T05:39:33.939Z,3.70
2023-04-20T05:44:36.744Z,4.23
2023-04-20T05:49:39.697Z,3.70
2023-04-20T05:54:42.602Z,3.77
2023-04-20T05:59:45.759Z,3.80
2023-04-20T06:04:48.625Z,9.73
2023-04-20T06:09:51.306Z,3.00
2023-04-20T06:14:53.865Z,3.30
2023-04-20T06:19:56.452Z,4.23
2023-04-20T06:25:00.566Z,3.00
2023-04-20T06:30:04.283Z,4.03
2023-04-20T06:35:10.030Z,3.27
2023-04-20T06:40:14.361Z,3.67
2023-04-20T06:45:18.693Z,3.40
2023-04-20T06:50:22.218Z,3.50
2023-04-20T06:55:24.754Z,3.80
2023-04-20T07:00:28.542Z,3.63
2023-04-20T07:05:31.371Z,3.30
2023-04-20T07:10:34.009Z,3.90
2023-04-20T07:15:36.591Z,3.87
2023-04-20T07:20:39.516Z,3.63
2023-04-20T07:25:42.400Z,3.50
2023-04-20T07:30:45.307Z,4.00
2023-04-20T07:35:48.194Z,4.57
2023-04-20T07:40:51.014Z,3.90
2023-04-20T07:45:53.766Z,3.90
2023-04-20T07:50:56.413Z,3.17
2023-04-20T07:55:58.996Z,4.13
2023-04-20T08:01:01.586Z,4.03
2023-04-20T08:06:04.499Z,3.90
2023-04-20T08:11:08.345Z,4.00
2023-04-20T08:16:11.370Z,4.50
2023-04-20T08:21:14.703Z,4.13
2023-04-20T08:26:17.636Z,3.67
2023-04-20T08:31:20.232Z,4.00
2023-04-20T08:36:23.020Z,4.10
2023-04-20T08:41:26.512Z,4.70
2023-04-20T08:46:29.611Z,4.00
2023-04-20T08:51:32.868Z,4.30
2023-04-20T08:56:37.925Z,3.90
2023-04-20T09:01:42.607Z,4.20
2023-04-20T09:06:52.607Z,4.00
2023-04-20T09:12:05.219Z,4.33
2023-04-20T09:17:07.783Z,4.20
2023-04-20T09:22:10.634Z,4.30
2023-04-20T09:27:19.915Z,3.47
2023-04-20T09:32:26.573Z,4.13
2023-04-20T09:37:29.125Z,3.53
2023-04-20T09:42:36.565Z,4.17
2023-04-20T09:47:42.263Z,3.83
2023-04-20T09:52:49.358Z,3.50
2023-04-20T09:57:54.080Z,4.40
2023-04-20T10:02:57.596Z,4.47
2023-04-20T10:08:01.773Z,3.60
2023-04-20T10:13:04.331Z,4.37
2023-04-20T10:18:24.730Z,4.57
2023-04-20T10:23:27.756Z,4.00
2023-04-20T10:28:45.201Z,4.37
2023-04-20T10:33:57.376Z,4.67
2023-04-20T10:39:02.957Z,3.97
2023-04-20T10:44:09.365Z,4.10
2023-04-20T10:49:12.329Z,4.03
2023-04-20T10:54:17.006Z,3.67
2023-04-20T10:59:23.547Z,4.03
2023-04-20T11:04:33.912Z,3.50
2023-04-20T11:09:38.541Z,3.00
2023-04-20T11:15:03.204Z,3.27
2023-04-20T11:20:18.705Z,3.30
2023-04-20T11:25:21.413Z,3.03
2023-04-20T11:30:24.010Z,3.77
2023-04-20T11:35:26.835Z,3.87
2023-04-20T11:40:29.480Z,3.50
2023-04-20T11:45:36.705Z,4.10
2023-04-20T11:50:41.807Z,4.23
2023-04-20T11:55:45.124Z,4.17
2023-04-20T12:00:47.738Z,4.10
2023-04-20T12:05:50.333Z,4.40
2023-04-20T12:10:53.148Z,3.87
2023-04-20T12:15:55.817Z,4.17
2023-04-20T12:20:58.625Z,3.93
2023-04-20T12:26:01.431Z,4.73
2023-04-20T12:31:04.261Z,4.70
2023-04-20T12:36:07.154Z,4.30
2023-04-20T12:41:15.283Z,4.07
2023-04-20T12:46:18.465Z,3.93
2023-04-20T12:51:21.107Z,3.90
2023-04-20T12:56:23.664Z,3.23
2023-04-20T13:01:27.162Z,3.63
2023-04-20T13:06:29.931Z,3.60
2023-04-20T13:11:32.585Z,4.17
2023-04-20T13:16:35.189Z,3.47
2023-04-20T13:21:37.771Z,3.57
2023-04-20T13:26:40.439Z,3.70
2023-04-20T13:31:43.472Z,3.53
2023-04-20T13:36:46.572Z,3.07
2023-04-20T13:41:52.426Z,3.67
2023-04-20T13:46:55.060Z,3.20
2023-04-20T13:51:57.751Z,3.30
2023-04-20T13:57:01.707Z,2.93
2023-04-20T14:02:04.623Z,3.80
2023-04-20T14:07:07.331Z,3.67
2023-04-20T14:12:10.556Z,3.47
2023-04-20T14:17:13.547Z,3.30
2023-04-20T14:22:16.591Z,3.57
2023-04-20T14:27:19.166Z,3.93
2023-04-20T14:32:21.850Z,4.00
2023-04-20T14:37:26.369Z,3.97
2023-04-20T14:42:29.137Z,3.53
2023-04-20T14:47:31.847Z,3.70
2023-04-20T14:52:34.786Z,3.43
2023-04-20T14:57:37.548Z,3.40
2023-04-20T15:02:40.804Z,3.80
2023-04-20T15:07:45.988Z,3.43
2023-04-20T15:12:49.252Z,3.57
2023-04-20T15:17:52.201Z,3.77
2023-04-20T15:22:55.006Z,4.00
2023-04-20T15:27:57.654Z,4.67
2023-04-20T15:33:04.376Z,3.50
2023-04-20T15:38:08.293Z,3.70
2023-04-20T15:43:11.693Z,3.87
2023-04-20T15:48:14.921Z,4.67
2023-04-20T15:53:17.877Z,4.07
2023-04-20T15:58:20.537Z,4.10
2023-04-20T16:03:23.251Z,3.67
2023-04-20T16:08:26.075Z,4.50
2023-04-20T16:13:28.777Z,4.30
2023-04-20T16:18:32.387Z,3.97
2023-04-20T16:23:35.249Z,4.70
2023-04-20T16:28:52.653Z,3.93
2023-04-20T16:33:56.183Z,4.47
2023-04-20T16:38:58.904Z,4.53
2023-04-20T16:44:01.740Z,4.20
2023-04-20T16:49:04.340Z,4.10
2023-04-20T16:54:07.051Z,3.90
2023-04-20T16:59:09.621Z,4.30
2023-04-20T17:04:12.640Z,4.50
2023-04-20T17:09:15.554Z,4.37
2023-04-20T17:14:18.421Z,4.10
2023-04-20T17:19:21.820Z,4.57
2023-04-20T17:24:24.428Z,4.27
2023-04-20T17:29:27.107Z,4.63
2023-04-20T17:34:29.720Z,3.70
2023-04-20T17:39:32.672Z,4.40
2023-04-20T17:44:35.289Z,4.17
2023-04-20T17:49:37.859Z,4.60
2023-04-20T17:54:40.418Z,4.60
2023-04-20T17:59:43.231Z,4.27
2023-04-20T18:04:46.285Z,4.33
2023-04-20T18:09:49.024Z,4.30
2023-04-20T18:14:51.575Z,4.63
2023-04-20T18:19:54.148Z,4.93
2023-04-20T18:24:56.810Z,4.80
2023-04-20T18:30:02.191Z,5.13
2023-04-20T18:35:06.386Z,4.90
2023-04-20T18:40:09.494Z,4.80
2023-04-20T18:45:13.422Z,4.63
2023-04-20T18:50:16.527Z,4.50
2023-04-20T18:55:19.301Z,5.03
2023-04-20T19:00:22.317Z,4.97
2023-04-20T19:05:25.021Z,4.43
2023-04-20T19:10:27.583Z,4.67
2023-04-20T19:15:30.266Z,3.90
2023-04-20T19:20:32.858Z,4.37
2023-04-20T19:25:37.217Z,5.00
2023-04-20T19:30:39.951Z,5.07
2023-04-20T19:35:43.874Z,7.77
2023-04-20T19:40:47.537Z,5.27
2023-04-20T19:45:50.305Z,5.27
2023-04-20T19:50:53.397Z,6.50
2023-04-20T19:55:56.124Z,7.23
2023-04-20T20:00:59.725Z,8.80
2023-04-20T20:06:02.452Z,8.90
2023-04-20T20:11:05.203Z,8.80
2023-04-20T20:16:07.857Z,8.33
2023-04-20T20:21:10.815Z,8.27
2023-04-20T20:26:13.919Z,7.03
2023-04-20T20:31:16.648Z,6.77
2023-04-20T20:36:19.476Z,7.57
2023-04-20T20:41:22.200Z,8.27
2023-04-20T20:46:24.770Z,7.40
2023-04-20T20:51:27.398Z,7.90
2023-04-20T20:56:30.248Z,6.97
2023-04-20T21:01:33.002Z,7.77
2023-04-20T21:06:35.713Z,7.93
2023-04-20T21:11:38.613Z,7.50
2023-04-20T21:16:41.344Z,8.03
2023-04-20T21:21:44.246Z,7.43
2023-04-20T21:26:46.883Z,8.93
2023-04-20T21:31:52.056Z,9.53
2023-04-20T21:36:54.817Z,6.90
2023-04-20T21:41:57.769Z,7.67
2023-04-20T21:47:02.714Z,8.90
2023-04-20T21:52:05.353Z,9.23
2023-04-20T21:57:08.056Z,8.77
2023-04-20T22:02:10.797Z,8.43
2023-04-20T22:07:14.770Z,8.73
2023-04-20T22:12:21.508Z,8.57
2023-04-20T22:17:31.500Z,8.73
2023-04-20T22:22:34.872Z,8.57
2023-04-20T22:27:37.905Z,9.23
2023-04-20T22:32:41.158Z,8.70
2023-04-20T22:37:43.986Z,9.30
2023-04-20T22:42:46.565Z,9.40
2023-04-20T22:47:49.206Z,9.20
2023-04-20T22:52:52.158Z,8.60
2023-04-20T22:57:54.713Z,8.80
2023-04-20T23:02:57.343Z,7.37
2023-04-20T23:08:00.719Z,9.47
2023-04-20T23:13:05.118Z,8.70
2023-04-20T23:18:07.711Z,7.97
2023-04-20T23:23:11.045Z,8.47
2023-04-20T23:28:14.238Z,8.60
2023-04-20T23:33:17.003Z,8.50
2023-04-20T23:38:19.566Z,8.10
2023-04-20T23:43:22.251Z,8.20
2023-04-20T23:48:24.762Z,7.23
2023-04-20T23:53:27.626Z,7.43
2023-04-20T23:58:30.162Z,7.80
